createdAt,value
2017-05-26T00:00:14.923Z,1023.2
2017-05-26T00:00:55.399Z,1023.22
2017-05-26T00:01:35.895Z,1023.25
2017-05-26T00:02:16.385Z,1023.23
2017-05-26T00:02:56.888Z,1023.21
2017-05-26T00:03:37.377Z,1023.16
2017-05-26T00:04:17.888Z,1023.23
2017-05-26T00:04:58.381Z,1023.21
2017-05-26T00:05:38.879Z,1023.17
2017-05-26T00:06:19.368Z,1023.16
2017-05-26T00:06:59.876Z,1023.17
2017-05-26T00:07:40.367Z,1023.17
2017-05-26T00:08:20.873Z,1023.19
2017-05-26T00:09:01.366Z,1023.25
2017-05-26T00:09:41.881Z,1023.17
2017-05-26T00:10:22.360Z,1023.18
2017-05-26T00:11:02.877Z,1023.17
2017-05-26T00:11:43.348Z,1023.21
2017-05-26T00:12:23.850Z,1023.11
2017-05-26T00:13:04.361Z,1023.17
2017-05-26T00:13:44.847Z,1023.14
2017-05-26T00:14:25.334Z,1023.18
2017-05-26T00:15:05.835Z,1023.15
2017-05-26T00:15:46.324Z,1023.22
2017-05-26T00:16:26.820Z,1023.2
2017-05-26T00:17:07.340Z,1023.19
2017-05-26T00:17:47.825Z,1023.19
2017-05-26T00:18:28.342Z,1023.15
2017-05-26T00:19:08.835Z,1023.18
2017-05-26T00:19:49.328Z,1023.2
2017-05-26T00:20:29.837Z,1023.22
2017-05-26T00:21:10.369Z,1023.24
2017-05-26T00:21:50.863Z,1023.2
2017-05-26T00:22:31.343Z,1023.16
2017-05-26T00:23:11.810Z,1023.16
2017-05-26T00:23:52.315Z,1023.13
2017-05-26T00:24:32.790Z,1023.15
2017-05-26T00:25:13.273Z,1023.1
2017-05-26T00:25:53.769Z,1023.16
2017-05-26T00:26:34.243Z,1023.12
2017-05-26T00:27:14.738Z,1023.13
2017-05-26T00:27:55.235Z,1023.11
2017-05-26T00:28:35.721Z,1023.04
2017-05-26T00:29:16.207Z,1023.05
2017-05-26T00:29:56.714Z,1023.09
2017-05-26T00:30:37.205Z,1023.06
2017-05-26T00:31:17.690Z,1023.07
2017-05-26T00:31:58.203Z,1023.04
2017-05-26T00:32:38.728Z,1023.04
2017-05-26T00:33:19.216Z,1023.07
2017-05-26T00:33:59.690Z,1023.07
2017-05-26T00:34:40.201Z,1023.08
2017-05-26T00:35:20.684Z,1023.06
2017-05-26T00:36:01.206Z,1023.09
2017-05-26T00:36:41.695Z,1023.07
2017-05-26T00:37:22.189Z,1023.06
2017-05-26T00:38:02.675Z,1023.08
2017-05-26T00:38:43.181Z,1023.04
2017-05-26T00:39:23.650Z,1023.08
2017-05-26T00:40:04.130Z,1023.01
2017-05-26T00:40:44.666Z,1023.05
2017-05-26T00:41:25.165Z,1023.05
2017-05-26T00:42:05.633Z,1023.08
2017-05-26T00:42:46.124Z,1023.06
2017-05-26T00:43:26.605Z,1023.04
2017-05-26T00:44:07.095Z,1023.03
2017-05-26T00:44:47.594Z,1023.03
2017-05-26T00:45:28.104Z,1023.02
2017-05-26T00:46:08.578Z,1023.03
2017-05-26T00:46:49.091Z,1023.09
2017-05-26T00:47:29.599Z,1023
2017-05-26T00:48:10.092Z,1023.05
2017-05-26T00:48:50.586Z,1023.08
2017-05-26T00:49:31.087Z,1023.06
2017-05-26T00:50:13.253Z,1023.11
2017-05-26T00:50:53.732Z,1023.08
2017-05-26T00:51:34.211Z,1023
2017-05-26T00:52:14.761Z,1023.02
2017-05-26T00:52:55.236Z,1023.01
2017-05-26T00:53:35.794Z,1023
2017-05-26T00:54:16.309Z,1023.05
2017-05-26T00:54:56.811Z,1023.04
2017-05-26T00:55:37.285Z,1022.99
2017-05-26T00:57:50.467Z,1022.99
2017-05-26T00:58:30.966Z,1022.96
2017-05-26T00:59:11.439Z,1023
2017-05-26T00:59:51.959Z,1023
2017-05-26T01:00:32.430Z,1022.98
2017-05-26T01:01:12.943Z,1023
2017-05-26T01:01:53.412Z,1022.97
2017-05-26T01:02:33.940Z,1023
2017-05-26T01:03:14.451Z,1023
2017-05-26T01:03:54.942Z,1023.03
2017-05-26T01:04:35.432Z,1022.96
2017-05-26T01:05:15.942Z,1023.03
2017-05-26T01:05:56.423Z,1023
2017-05-26T01:06:36.939Z,1023.02
2017-05-26T01:07:17.426Z,1023.01
2017-05-26T01:07:57.936Z,1022.99
2017-05-26T01:08:38.433Z,1023.03
2017-05-26T01:09:18.900Z,1023
2017-05-26T01:09:59.433Z,1022.99
2017-05-26T01:10:39.951Z,1023.01
2017-05-26T01:11:20.579Z,1023
2017-05-26T01:12:01.071Z,1023.03
2017-05-26T01:12:41.579Z,1023.07
2017-05-26T01:13:22.071Z,1023.02
2017-05-26T01:14:02.561Z,1023
2017-05-26T01:14:43.066Z,1022.97
2017-05-26T01:15:23.495Z,1022.99
2017-05-26T01:16:03.993Z,1023.03
2017-05-26T01:16:44.494Z,1023.06
2017-05-26T01:17:24.977Z,1022.97
2017-05-26T01:18:05.472Z,1023.03
2017-05-26T01:18:45.968Z,1022.96
2017-05-26T01:19:26.479Z,1022.93
2017-05-26T01:20:06.943Z,1022.96
2017-05-26T01:20:47.455Z,1022.93
2017-05-26T01:21:27.953Z,1022.98
2017-05-26T01:22:08.463Z,1022.96
2017-05-26T01:22:48.945Z,1022.98
2017-05-26T01:23:29.480Z,1023.03
2017-05-26T01:24:09.970Z,1022.97
2017-05-26T01:24:50.455Z,1022.96
2017-05-26T01:25:30.956Z,1023.02
2017-05-26T01:26:11.454Z,1022.95
2017-05-26T01:26:51.948Z,1023
2017-05-26T01:27:32.448Z,1023.03
2017-05-26T01:28:12.942Z,1023.01
2017-05-26T01:28:53.463Z,1022.98
2017-05-26T01:29:33.971Z,1023
2017-05-26T01:30:14.485Z,1023.02
2017-05-26T01:30:54.978Z,1023.02
2017-05-26T01:31:35.476Z,1023.03
2017-05-26T01:32:15.968Z,1023.03
2017-05-26T01:32:56.473Z,1023.05
2017-05-26T01:33:36.967Z,1023.01
2017-05-26T01:34:17.464Z,1023.04
2017-05-26T01:34:57.948Z,1023.01
2017-05-26T01:35:38.459Z,1023.02
2017-05-26T01:36:18.939Z,1022.98
2017-05-26T01:36:59.460Z,1022.96
2017-05-26T01:37:39.987Z,1023.05
2017-05-26T01:38:20.449Z,1022.92
2017-05-26T01:39:00.946Z,1022.97
2017-05-26T01:39:41.428Z,1022.99
2017-05-26T01:40:21.923Z,1022.93
2017-05-26T01:41:04.180Z,1022.9
2017-05-26T01:41:44.729Z,1022.84
2017-05-26T01:42:25.222Z,1022.87
2017-05-26T01:43:05.716Z,1022.83
2017-05-26T01:43:46.200Z,1022.81
2017-05-26T01:44:26.689Z,1022.84
2017-05-26T01:45:07.213Z,1022.86
2017-05-26T01:45:47.700Z,1022.89
2017-05-26T01:46:28.181Z,1022.82
2017-05-26T01:47:08.698Z,1022.8
2017-05-26T01:47:49.134Z,1022.79
2017-05-26T01:48:29.626Z,1022.84
2017-05-26T01:49:10.102Z,1022.78
2017-05-26T01:49:50.608Z,1022.85
2017-05-26T01:50:31.105Z,1022.79
2017-05-26T01:51:11.622Z,1022.79
2017-05-26T01:51:52.107Z,1022.81
2017-05-26T01:52:32.599Z,1022.76
2017-05-26T01:53:13.083Z,1022.82
2017-05-26T01:53:53.589Z,1022.8
2017-05-26T01:54:34.081Z,1022.79
2017-05-26T01:55:14.574Z,1022.8
2017-05-26T01:55:55.083Z,1022.78
2017-05-26T01:56:35.548Z,1022.85
2017-05-26T01:57:16.054Z,1022.82
2017-05-26T01:57:56.546Z,1022.84
2017-05-26T01:58:37.033Z,1022.87
2017-05-26T01:59:17.552Z,1022.89
2017-05-26T01:59:58.036Z,1022.92
2017-05-26T02:00:38.513Z,1022.98
2017-05-26T02:01:19.014Z,1022.94
2017-05-26T02:01:59.528Z,1023
2017-05-26T02:02:39.999Z,1022.97
2017-05-26T02:03:20.609Z,1022.96
2017-05-26T02:04:01.142Z,1022.94
2017-05-26T02:04:41.623Z,1023.01
2017-05-26T02:05:22.086Z,1022.98
2017-05-26T02:06:02.584Z,1022.99
2017-05-26T02:06:43.089Z,1022.98
2017-05-26T02:07:23.578Z,1022.98
2017-05-26T02:08:04.074Z,1022.97
2017-05-26T02:08:44.599Z,1022.98
2017-05-26T02:09:25.100Z,1023.01
2017-05-26T02:10:05.590Z,1023.01
2017-05-26T02:10:46.077Z,1022.99
2017-05-26T02:11:26.562Z,1023.04
2017-05-26T02:12:07.065Z,1023.03
2017-05-26T02:12:47.526Z,1023
2017-05-26T02:13:27.994Z,1022.99
2017-05-26T02:14:08.501Z,1022.98
2017-05-26T02:14:48.976Z,1023
2017-05-26T02:15:29.512Z,1023
2017-05-26T02:16:10.062Z,1022.97
2017-05-26T02:16:50.556Z,1022.96
2017-05-26T02:17:31.030Z,1023.01
2017-05-26T02:18:11.537Z,1023.02
2017-05-26T02:18:52.030Z,1022.97
2017-05-26T02:19:32.551Z,1022.97
2017-05-26T02:20:13.058Z,1022.98
2017-05-26T02:20:53.547Z,1022.99
2017-05-26T02:21:34.055Z,1022.98
2017-05-26T02:22:14.546Z,1022.89
2017-05-26T02:22:55.043Z,1022.95
2017-05-26T02:23:35.557Z,1022.94
2017-05-26T02:24:16.025Z,1022.91
2017-05-26T02:24:56.518Z,1022.96
2017-05-26T02:25:37.009Z,1022.96
2017-05-26T02:26:17.472Z,1022.9
2017-05-26T02:26:57.973Z,1022.92
2017-05-26T02:27:38.462Z,1022.87
2017-05-26T02:28:18.966Z,1022.87
2017-05-26T02:28:59.508Z,1022.89
2017-05-26T02:29:39.970Z,1022.91
2017-05-26T02:30:20.457Z,1022.89
2017-05-26T02:31:00.942Z,1022.92
2017-05-26T02:31:41.444Z,1022.82
2017-05-26T02:32:21.931Z,1022.8
2017-05-26T02:33:02.416Z,1022.81
2017-05-26T02:33:42.897Z,1022.78
2017-05-26T02:34:23.396Z,1022.79
2017-05-26T02:35:03.863Z,1022.79
2017-05-26T02:35:44.370Z,1022.76
2017-05-26T02:36:24.868Z,1022.7
2017-05-26T02:37:05.346Z,1022.68
2017-05-26T02:37:45.838Z,1022.7
2017-05-26T02:38:26.332Z,1022.66
2017-05-26T02:39:06.824Z,1022.65
2017-05-26T02:39:47.318Z,1022.62
2017-05-26T02:40:27.784Z,1022.68
2017-05-26T02:41:08.306Z,1022.65
2017-05-26T02:43:26.562Z,1022.7
2017-05-26T02:44:07.053Z,1022.81
2017-05-26T02:44:47.546Z,1022.73
2017-05-26T02:45:28.035Z,1022.73
2017-05-26T02:46:08.518Z,1022.72
2017-05-26T02:46:49.013Z,1022.69
2017-05-26T02:47:29.525Z,1022.73
2017-05-26T02:48:09.980Z,1022.72
2017-05-26T02:48:50.470Z,1022.74
2017-05-26T02:49:30.948Z,1022.81
2017-05-26T02:50:11.451Z,1022.71
2017-05-26T02:50:51.949Z,1022.74
2017-05-26T02:51:32.429Z,1022.74
2017-05-26T02:52:12.925Z,1022.74
2017-05-26T02:52:53.415Z,1022.7
2017-05-26T02:53:33.887Z,1022.74
2017-05-26T02:54:14.374Z,1022.68
2017-05-26T02:54:54.898Z,1022.66
2017-05-26T02:55:35.369Z,1022.65
2017-05-26T02:56:15.877Z,1022.68
2017-05-26T02:56:56.380Z,1022.74
2017-05-26T02:57:36.884Z,1022.72
2017-05-26T02:58:17.333Z,1022.72
2017-05-26T02:58:57.809Z,1022.75
2017-05-26T02:59:38.287Z,1022.75
2017-05-26T03:00:18.794Z,1022.8
2017-05-26T03:00:59.273Z,1022.75
2017-05-26T03:01:39.787Z,1022.74
2017-05-26T03:02:20.266Z,1022.76
2017-05-26T03:03:00.825Z,1022.76
2017-05-26T03:03:41.283Z,1022.73
2017-05-26T03:04:21.778Z,1022.77
2017-05-26T03:05:02.276Z,1022.8
2017-05-26T03:05:42.774Z,1022.76
2017-05-26T03:06:23.245Z,1022.77
2017-05-26T03:07:03.757Z,1022.79
2017-05-26T03:07:44.265Z,1022.79
2017-05-26T03:08:24.770Z,1022.84
2017-05-26T03:09:05.238Z,1022.75
2017-05-26T03:09:45.720Z,1022.76
2017-05-26T03:10:26.254Z,1022.8
2017-05-26T03:11:06.735Z,1022.86
2017-05-26T03:11:47.250Z,1022.87
2017-05-26T03:12:27.748Z,1022.82
2017-05-26T03:13:08.255Z,1022.85
2017-05-26T03:13:48.770Z,1022.82
2017-05-26T03:14:29.244Z,1022.86
2017-05-26T03:15:09.746Z,1022.84
2017-05-26T03:15:50.261Z,1022.86
2017-05-26T03:17:48.341Z,1022.78
2017-05-26T03:18:28.843Z,1022.8
2017-05-26T03:19:09.344Z,1022.83
2017-05-26T03:19:49.842Z,1022.78
2017-05-26T03:20:30.327Z,1022.79
2017-05-26T03:21:10.801Z,1022.78
2017-05-26T03:21:51.316Z,1022.75
2017-05-26T03:22:31.791Z,1022.76
2017-05-26T03:23:12.288Z,1022.76
2017-05-26T03:23:52.768Z,1022.76
2017-05-26T03:24:33.227Z,1022.79
2017-05-26T03:25:13.683Z,1022.8
2017-05-26T03:25:54.183Z,1022.8
2017-05-26T03:26:34.648Z,1022.8
2017-05-26T03:27:15.130Z,1022.8
2017-05-26T03:27:55.622Z,1022.78
2017-05-26T03:28:36.121Z,1022.81
2017-05-26T03:29:16.615Z,1022.79
2017-05-26T03:29:57.102Z,1022.81
2017-05-26T03:30:37.575Z,1022.79
2017-05-26T03:31:18.056Z,1022.78
2017-05-26T03:31:58.561Z,1022.82
2017-05-26T03:32:39.038Z,1022.74
2017-05-26T03:33:19.493Z,1022.72
2017-05-26T03:34:00.003Z,1022.75
2017-05-26T03:34:40.465Z,1022.73
2017-05-26T03:35:20.920Z,1022.71
2017-05-26T03:36:01.443Z,1022.78
2017-05-26T03:36:41.924Z,1022.79
2017-05-26T03:37:22.402Z,1022.82
2017-05-26T03:38:02.891Z,1022.79
2017-05-26T03:38:43.375Z,1022.81
2017-05-26T03:39:23.863Z,1022.85
2017-05-26T03:40:04.342Z,1022.82
2017-05-26T03:40:44.878Z,1022.83
2017-05-26T03:41:25.383Z,1022.78
2017-05-26T03:42:05.896Z,1022.81
2017-05-26T03:42:46.382Z,1022.8
2017-05-26T03:43:26.897Z,1022.82
2017-05-26T03:44:07.361Z,1022.78
2017-05-26T03:44:47.863Z,1022.79
2017-05-26T03:45:28.346Z,1022.86
2017-05-26T03:46:08.838Z,1022.85
2017-05-26T03:46:49.345Z,1022.83
2017-05-26T03:47:29.830Z,1022.89
2017-05-26T03:48:10.344Z,1022.89
2017-05-26T03:48:50.828Z,1022.86
2017-05-26T03:49:31.328Z,1022.91
2017-05-26T03:50:11.816Z,1022.92
2017-05-26T03:50:52.305Z,1022.89
2017-05-26T03:51:32.768Z,1022.92
2017-05-26T03:52:13.247Z,1022.95
2017-05-26T03:52:53.730Z,1022.94
2017-05-26T03:53:34.225Z,1022.94
2017-05-26T03:54:14.725Z,1022.9
2017-05-26T03:54:55.221Z,1022.89
2017-05-26T03:55:35.690Z,1022.9
2017-05-26T03:56:16.155Z,1022.94
2017-05-26T03:58:10.170Z,1022.96
2017-05-26T03:58:50.650Z,1022.9
2017-05-26T03:59:31.131Z,1022.91
2017-05-26T04:00:11.671Z,1022.96
2017-05-26T04:00:52.116Z,1023
2017-05-26T04:01:32.620Z,1023.05
2017-05-26T04:02:13.105Z,1023.1
2017-05-26T04:02:53.591Z,1023.06
2017-05-26T04:03:34.112Z,1023.08
2017-05-26T04:04:14.660Z,1023.12
2017-05-26T04:04:55.172Z,1023.13
2017-05-26T04:05:35.649Z,1023.12
2017-05-26T04:06:16.156Z,1023.15
2017-05-26T04:06:56.654Z,1023.14
2017-05-26T04:07:37.162Z,1023.12
2017-05-26T04:08:17.660Z,1023.14
2017-05-26T04:08:58.163Z,1023.08
2017-05-26T04:09:38.673Z,1023.14
2017-05-26T04:10:19.129Z,1023.1
2017-05-26T04:10:59.687Z,1023.07
2017-05-26T04:11:40.186Z,1023.09
2017-05-26T04:12:20.689Z,1023.05
2017-05-26T04:13:01.202Z,1023.07
2017-05-26T04:13:41.685Z,1023.04
2017-05-26T04:14:22.188Z,1023.02
2017-05-26T04:15:02.660Z,1023.08
2017-05-26T04:15:43.160Z,1023.04
2017-05-26T04:16:23.626Z,1023.03
2017-05-26T04:17:04.110Z,1023.08
2017-05-26T04:17:44.660Z,1023.07
2017-05-26T04:18:25.146Z,1023.14
2017-05-26T04:19:05.635Z,1023.06
2017-05-26T04:19:46.111Z,1023.14
2017-05-26T04:20:26.601Z,1023.14
2017-05-26T04:21:07.091Z,1023.15
2017-05-26T04:21:47.578Z,1023.14
2017-05-26T04:22:28.084Z,1023.16
2017-05-26T04:23:08.566Z,1023.13
2017-05-26T04:23:49.043Z,1023.15
2017-05-26T04:24:29.579Z,1023.17
2017-05-26T04:25:10.046Z,1023.14
2017-05-26T04:25:50.559Z,1023.16
2017-05-26T04:26:31.049Z,1023.19
2017-05-26T04:27:11.540Z,1023.2
2017-05-26T04:27:52.042Z,1023.19
2017-05-26T04:28:32.493Z,1023.23
2017-05-26T04:29:12.985Z,1023.27
2017-05-26T04:29:53.498Z,1023.27
2017-05-26T04:30:33.970Z,1023.24
2017-05-26T04:31:14.476Z,1023.23
2017-05-26T04:31:54.948Z,1023.26
2017-05-26T04:32:35.438Z,1023.27
2017-05-26T04:33:15.924Z,1023.31
2017-05-26T04:33:56.388Z,1023.29
2017-05-26T04:34:36.892Z,1023.28
2017-05-26T04:35:17.407Z,1023.34
2017-05-26T04:35:57.876Z,1023.35
2017-05-26T04:36:38.358Z,1023.35
2017-05-26T04:37:18.854Z,1023.37
2017-05-26T04:37:59.335Z,1023.35
2017-05-26T04:38:39.888Z,1023.38
2017-05-26T04:39:20.338Z,1023.37
2017-05-26T04:40:00.835Z,1023.36
2017-05-26T04:40:41.319Z,1023.35
2017-05-26T04:41:21.841Z,1023.38
2017-05-26T04:42:02.359Z,1023.39
2017-05-26T04:42:42.828Z,1023.38
2017-05-26T04:43:23.346Z,1023.38
2017-05-26T04:44:03.832Z,1023.42
2017-05-26T04:44:44.332Z,1023.39
2017-05-26T04:45:24.866Z,1023.39
2017-05-26T04:46:05.339Z,1023.39
2017-05-26T04:46:45.853Z,1023.4
2017-05-26T04:47:26.317Z,1023.4
2017-05-26T04:48:06.817Z,1023.44
2017-05-26T04:48:47.289Z,1023.37
2017-05-26T04:49:27.774Z,1023.39
2017-05-26T04:50:08.279Z,1023.43
2017-05-26T04:50:48.753Z,1023.36
2017-05-26T04:51:29.232Z,1023.34
2017-05-26T04:52:09.744Z,1023.33
2017-05-26T04:52:50.260Z,1023.34
2017-05-26T04:53:30.774Z,1023.33
2017-05-26T04:54:11.269Z,1023.39
2017-05-26T04:54:51.778Z,1023.39
2017-05-26T04:55:32.295Z,1023.35
2017-05-26T04:56:12.765Z,1023.37
2017-05-26T04:56:53.266Z,1023.38
2017-05-26T04:57:33.775Z,1023.39
2017-05-26T04:58:14.268Z,1023.37
2017-05-26T04:58:54.755Z,1023.44
2017-05-26T04:59:35.255Z,1023.43
2017-05-26T05:00:15.759Z,1023.45
2017-05-26T05:00:56.266Z,1023.45
2017-05-26T05:01:36.749Z,1023.45
2017-05-26T05:02:17.246Z,1023.44
2017-05-26T05:02:57.735Z,1023.44
2017-05-26T05:03:38.232Z,1023.45
2017-05-26T05:04:18.717Z,1023.45
2017-05-26T05:04:59.208Z,1023.48
2017-05-26T05:05:39.704Z,1023.47
2017-05-26T05:06:20.195Z,1023.49
2017-05-26T05:07:00.688Z,1023.5
2017-05-26T05:07:41.171Z,1023.55
2017-05-26T05:08:21.665Z,1023.49
2017-05-26T05:09:02.155Z,1023.57
2017-05-26T05:09:42.647Z,1023.52
2017-05-26T05:10:23.158Z,1023.52
2017-05-26T05:11:03.653Z,1023.55
2017-05-26T05:11:44.151Z,1023.56
2017-05-26T05:12:24.644Z,1023.56
2017-05-26T05:13:05.177Z,1023.59
2017-05-26T05:13:45.671Z,1023.6
2017-05-26T05:14:26.185Z,1023.6
2017-05-26T05:15:06.675Z,1023.6
2017-05-26T05:15:47.170Z,1023.57
2017-05-26T05:16:27.667Z,1023.64
2017-05-26T05:17:08.168Z,1023.61
2017-05-26T05:17:48.673Z,1023.58
2017-05-26T05:18:29.165Z,1023.57
2017-05-26T05:19:09.674Z,1023.58
2017-05-26T05:19:50.149Z,1023.57
2017-05-26T05:20:30.661Z,1023.59
2017-05-26T05:21:11.148Z,1023.6
2017-05-26T05:21:51.642Z,1023.6
2017-05-26T05:22:32.107Z,1023.6
2017-05-26T05:23:12.602Z,1023.63
2017-05-26T05:23:53.140Z,1023.62
2017-05-26T05:24:33.638Z,1023.61
2017-05-26T05:25:14.086Z,1023.59
2017-05-26T05:25:54.602Z,1023.58
2017-05-26T05:26:35.089Z,1023.59
2017-05-26T05:27:15.564Z,1023.57
2017-05-26T05:27:56.070Z,1023.58
2017-05-26T05:28:36.581Z,1023.57
2017-05-26T05:29:17.065Z,1023.59
2017-05-26T05:29:57.610Z,1023.6
2017-05-26T05:30:38.102Z,1023.61
2017-05-26T05:31:18.586Z,1023.64
2017-05-26T05:31:59.069Z,1023.6
2017-05-26T05:32:39.573Z,1023.57
2017-05-26T05:33:20.050Z,1023.61
2017-05-26T05:34:00.534Z,1023.61
2017-05-26T05:34:41.015Z,1023.64
2017-05-26T05:35:21.508Z,1023.63
2017-05-26T05:36:02.018Z,1023.64
2017-05-26T05:36:42.517Z,1023.63
2017-05-26T05:37:22.995Z,1023.64
2017-05-26T05:38:03.506Z,1023.62
2017-05-26T05:38:44.018Z,1023.66
2017-05-26T05:39:24.527Z,1023.67
2017-05-26T05:40:05.040Z,1023.64
2017-05-26T05:40:45.534Z,1023.62
2017-05-26T05:41:26.061Z,1023.65
2017-05-26T05:42:06.554Z,1023.62
2017-05-26T05:42:47.046Z,1023.63
2017-05-26T05:43:27.553Z,1023.6
2017-05-26T05:44:08.065Z,1023.59
2017-05-26T05:44:48.532Z,1023.61
2017-05-26T05:45:28.987Z,1023.62
2017-05-26T05:46:09.500Z,1023.62
2017-05-26T05:46:49.998Z,1023.66
2017-05-26T05:47:30.494Z,1023.57
2017-05-26T05:48:10.994Z,1023.55
2017-05-26T05:48:51.473Z,1023.6
2017-05-26T05:49:31.963Z,1023.66
2017-05-26T05:50:12.487Z,1023.57
2017-05-26T05:50:52.993Z,1023.62
2017-05-26T05:51:33.475Z,1023.65
2017-05-26T05:52:13.974Z,1023.61
2017-05-26T05:52:54.473Z,1023.64
2017-05-26T05:53:34.920Z,1023.62
2017-05-26T05:54:15.407Z,1023.64
2017-05-26T05:54:55.912Z,1023.67
2017-05-26T05:55:36.413Z,1023.62
2017-05-26T05:56:16.902Z,1023.58
2017-05-26T05:56:57.390Z,1023.68
2017-05-26T05:57:37.909Z,1023.63
2017-05-26T05:58:18.418Z,1023.69
2017-05-26T05:58:58.933Z,1023.71
2017-05-26T05:59:39.442Z,1023.67
2017-05-26T06:00:19.926Z,1023.73
2017-05-26T06:01:00.415Z,1023.72
2017-05-26T06:01:40.946Z,1023.67
2017-05-26T06:02:21.430Z,1023.7
2017-05-26T06:03:01.914Z,1023.71
2017-05-26T06:03:42.424Z,1023.74
2017-05-26T06:04:22.927Z,1023.72
2017-05-26T06:05:03.437Z,1023.73
2017-05-26T06:05:43.942Z,1023.71
2017-05-26T06:06:24.448Z,1023.69
2017-05-26T06:07:04.939Z,1023.71
2017-05-26T06:07:45.438Z,1023.67
2017-05-26T06:08:25.913Z,1023.68
2017-05-26T06:09:06.388Z,1023.66
2017-05-26T06:09:46.895Z,1023.66
2017-05-26T06:10:27.386Z,1023.66
2017-05-26T06:11:07.882Z,1023.66
2017-05-26T06:11:48.351Z,1023.64
2017-05-26T06:12:28.865Z,1023.72
2017-05-26T06:13:09.343Z,1023.71
2017-05-26T06:13:49.834Z,1023.72
2017-05-26T06:14:30.343Z,1023.79
2017-05-26T06:15:10.846Z,1023.76
2017-05-26T06:15:51.324Z,1023.8
2017-05-26T06:16:31.844Z,1023.76
2017-05-26T06:17:12.326Z,1023.75
2017-05-26T06:17:52.833Z,1023.73
2017-05-26T06:18:33.292Z,1023.73
2017-05-26T06:19:13.785Z,1023.76
2017-05-26T06:19:54.252Z,1023.75
2017-05-26T06:20:34.767Z,1023.7
2017-05-26T06:21:15.228Z,1023.68
2017-05-26T06:21:55.739Z,1023.68
2017-05-26T06:22:36.217Z,1023.71
2017-05-26T06:23:16.750Z,1023.69
2017-05-26T06:23:57.251Z,1023.64
2017-05-26T06:24:37.747Z,1023.67
2017-05-26T06:25:18.234Z,1023.68
2017-05-26T06:25:58.757Z,1023.64
2017-05-26T06:26:39.230Z,1023.67
2017-05-26T06:27:19.708Z,1023.72
2017-05-26T06:28:00.209Z,1023.75
2017-05-26T06:28:40.714Z,1023.71
2017-05-26T06:29:21.221Z,1023.74
2017-05-26T06:30:01.702Z,1023.75
2017-05-26T06:30:42.200Z,1023.78
2017-05-26T06:31:22.687Z,1023.75
2017-05-26T06:32:03.197Z,1023.71
2017-05-26T06:32:43.683Z,1023.77
2017-05-26T06:33:24.147Z,1023.72
2017-05-26T06:34:04.624Z,1023.74
2017-05-26T06:34:45.135Z,1023.76
2017-05-26T06:35:25.646Z,1023.8
2017-05-26T06:36:06.151Z,1023.86
2017-05-26T06:36:46.627Z,1023.77
2017-05-26T06:37:27.086Z,1023.82
2017-05-26T06:38:07.613Z,1023.81
2017-05-26T06:38:48.106Z,1023.82
2017-05-26T06:39:28.616Z,1023.81
2017-05-26T06:40:09.148Z,1023.86
2017-05-26T06:40:49.630Z,1023.82
2017-05-26T06:41:30.155Z,1023.88
2017-05-26T06:42:10.650Z,1023.87
2017-05-26T06:42:51.114Z,1023.83
2017-05-26T06:43:31.607Z,1023.76
2017-05-26T06:44:12.115Z,1023.86
2017-05-26T06:44:52.616Z,1023.89
2017-05-26T06:45:33.114Z,1023.87
2017-05-26T06:46:13.600Z,1023.92
2017-05-26T06:46:54.080Z,1023.89
2017-05-26T06:47:34.561Z,1023.93
2017-05-26T06:48:15.123Z,1023.94
2017-05-26T06:48:55.623Z,1023.92
2017-05-26T06:49:36.138Z,1023.92
2017-05-26T06:50:16.647Z,1023.93
2017-05-26T06:50:57.164Z,1023.89
2017-05-26T06:51:37.649Z,1023.89
2017-05-26T06:52:18.149Z,1023.87
2017-05-26T06:52:58.666Z,1023.82
2017-05-26T06:53:39.173Z,1023.84
2017-05-26T06:54:19.644Z,1023.84
2017-05-26T06:55:00.160Z,1023.81
2017-05-26T06:55:40.662Z,1023.87
2017-05-26T06:56:21.169Z,1023.87
2017-05-26T06:57:01.647Z,1023.88
2017-05-26T06:57:42.146Z,1023.78
2017-05-26T06:58:22.660Z,1023.79
2017-05-26T06:59:03.141Z,1023.81
2017-05-26T06:59:43.638Z,1023.83
2017-05-26T07:00:24.103Z,1023.84
2017-05-26T07:01:04.616Z,1023.82
2017-05-26T07:01:45.130Z,1023.81
2017-05-26T07:02:25.614Z,1023.84
2017-05-26T07:03:06.093Z,1023.85
2017-05-26T07:03:46.568Z,1023.83
2017-05-26T07:04:27.051Z,1023.83
2017-05-26T07:05:07.531Z,1023.82
2017-05-26T07:05:48.049Z,1023.83
2017-05-26T07:06:28.613Z,1023.83
2017-05-26T07:07:09.257Z,1023.86
2017-05-26T07:07:49.733Z,1023.91
2017-05-26T07:08:30.273Z,1023.91
2017-05-26T07:09:10.759Z,1023.93
2017-05-26T07:09:51.387Z,1023.94
2017-05-26T07:10:31.982Z,1023.92
2017-05-26T07:11:12.607Z,1023.9
2017-05-26T07:11:53.082Z,1023.9
2017-05-26T07:12:33.567Z,1023.9
2017-05-26T07:13:14.097Z,1023.87
2017-05-26T07:13:54.589Z,1023.92
2017-05-26T07:14:35.099Z,1023.88
2017-05-26T07:15:15.587Z,1023.88
2017-05-26T07:15:56.041Z,1023.85
2017-05-26T07:16:36.548Z,1023.87
2017-05-26T07:17:17.013Z,1023.86
2017-05-26T07:17:57.519Z,1023.85
2017-05-26T07:18:38.009Z,1023.9
2017-05-26T07:19:18.485Z,1023.88
2017-05-26T07:19:59.011Z,1023.87
2017-05-26T07:22:13.071Z,1023.91
2017-05-26T07:22:53.554Z,1023.92
2017-05-26T07:23:34.032Z,1023.99
2017-05-26T07:24:14.513Z,1023.93
2017-05-26T07:24:55.019Z,1023.91
2017-05-26T07:25:35.495Z,1023.97
2017-05-26T07:26:15.985Z,1023.99
2017-05-26T07:26:56.455Z,1023.99
2017-05-26T07:27:36.950Z,1023.96
2017-05-26T07:28:17.662Z,1024.07
2017-05-26T07:28:58.156Z,1024.03
2017-05-26T07:29:45.444Z,1024.01
2017-05-26T07:30:25.935Z,1024.1
2017-05-26T07:31:06.439Z,1024.12
2017-05-26T07:31:46.927Z,1024.04
2017-05-26T07:32:27.440Z,1023.97
2017-05-26T07:33:07.953Z,1024.04
2017-05-26T07:33:48.434Z,1024
2017-05-26T07:34:28.928Z,1024.04
2017-05-26T07:35:09.445Z,1024.06
2017-05-26T07:35:49.950Z,1024.03
2017-05-26T07:36:30.489Z,1024.02
2017-05-26T07:37:11.070Z,1023.96
2017-05-26T07:37:51.562Z,1023.94
2017-05-26T07:38:32.087Z,1023.95
2017-05-26T07:39:12.572Z,1023.94
2017-05-26T07:39:53.066Z,1024.05
2017-05-26T07:40:33.553Z,1023.98
2017-05-26T07:41:14.044Z,1024.02
2017-05-26T07:41:54.551Z,1024.01
2017-05-26T07:42:35.057Z,1023.97
2017-05-26T07:43:15.547Z,1024
2017-05-26T07:43:56.042Z,1023.98
2017-05-26T07:44:36.526Z,1023.93
2017-05-26T07:45:17.002Z,1023.92
2017-05-26T07:45:57.542Z,1023.91
2017-05-26T07:46:38.054Z,1023.94
2017-05-26T07:47:18.555Z,1023.93
2017-05-26T07:47:59.035Z,1023.91
2017-05-26T07:48:39.507Z,1023.94
2017-05-26T07:49:19.988Z,1023.95
2017-05-26T07:50:00.530Z,1023.93
2017-05-26T07:50:41.000Z,1023.95
2017-05-26T07:51:21.521Z,1024.04
2017-05-26T07:52:02.003Z,1024.02
2017-05-26T07:52:42.484Z,1024.07
2017-05-26T07:53:22.979Z,1024.06
2017-05-26T07:54:03.477Z,1024.03
2017-05-26T07:54:43.974Z,1024.07
2017-05-26T07:55:24.523Z,1024.08
2017-05-26T07:56:05.009Z,1024.1
2017-05-26T07:56:45.529Z,1024.13
2017-05-26T07:57:26.016Z,1024.11
2017-05-26T07:58:06.511Z,1024.1
2017-05-26T07:58:47.005Z,1024.08
2017-05-26T07:59:27.490Z,1024.13
2017-05-26T08:00:08.001Z,1024.12
2017-05-26T08:00:48.504Z,1024.14
2017-05-26T08:01:28.970Z,1024.12
2017-05-26T08:02:09.447Z,1024.15
2017-05-26T08:02:49.928Z,1024.13
2017-05-26T08:03:30.420Z,1024.08
2017-05-26T08:04:10.914Z,1024.11
2017-05-26T08:04:51.407Z,1024.12
2017-05-26T08:05:31.902Z,1024.16
2017-05-26T08:06:12.371Z,1024.11
2017-05-26T08:06:52.873Z,1024.09
2017-05-26T08:07:33.372Z,1024.08
2017-05-26T08:08:13.830Z,1024.04
2017-05-26T08:08:54.351Z,1024.06
2017-05-26T08:09:34.833Z,1024.06
2017-05-26T08:10:15.327Z,1024.07
2017-05-26T08:10:55.796Z,1024.06
2017-05-26T08:11:36.419Z,1024.05
2017-05-26T08:12:16.912Z,1024.05
2017-05-26T08:12:57.417Z,1024.06
2017-05-26T08:13:37.930Z,1024.08
2017-05-26T08:14:18.421Z,1024.05
2017-05-26T08:14:58.921Z,1024.09
2017-05-26T08:15:39.431Z,1024.14
2017-05-26T08:16:19.924Z,1024.03
2017-05-26T08:17:00.405Z,1024.1
2017-05-26T08:17:40.873Z,1024.03
2017-05-26T08:18:21.373Z,1024.08
2017-05-26T08:19:01.867Z,1024.12
2017-05-26T08:19:42.385Z,1024.07